sensor_id;sensor_type;location;lat;lon;timestamp;pressure;altitude;pressure_sealevel;temperature;humidity
6680;BME280;3376;42.664;23.346;2022-10-16T00:00:21;95177.66;;;9.86;nan
6680;BME280;3376;42.664;23.346;2022-10-16T00:02:48;95179.38;;;9.78;nan
6680;BME280;3376;42.664;23.346;2022-10-16T00:05:14;95176.28;;;9.74;nan
6680;BME280;3376;42.664;23.346;2022-10-16T00:07:41;95183.66;;;9.87;nan
6680;BME280;3376;42.664;23.346;2022-10-16T00:10:08;95187.19;;;9.86;nan
6680;BME280;3376;42.664;23.346;2022-10-16T00:12:36;95188.13;;;9.77;nan
6680;BME280;3376;42.664;23.346;2022-10-16T00:15:04;95192.47;;;9.76;nan
6680;BME280;3376;42.664;23.346;2022-10-16T00:17:31;95185.28;;;9.62;nan
6680;BME280;3376;42.664;23.346;2022-10-16T00:19:58;95178.94;;;9.57;nan
6680;BME280;3376;42.664;23.346;2022-10-16T00:22:25;95195.63;;;9.62;nan
6680;BME280;3376;42.664;23.346;2022-10-16T00:24:52;95195.31;;;9.65;nan
6680;BME280;3376;42.664;23.346;2022-10-16T00:27:19;95197.56;;;9.60;nan
6680;BME280;3376;42.664;23.346;2022-10-16T00:29:50;95071.66;;;8.76;nan
6680;BME280;3376;42.664;23.346;2022-10-16T00:32:17;95166.28;;;9.20;nan
6680;BME280;3376;42.664;23.346;2022-10-16T00:34:44;95212.34;;;9.24;nan
6680;BME280;3376;42.664;23.346;2022-10-16T00:37:11;95194.63;;;9.12;nan
6680;BME280;3376;42.664;23.346;2022-10-16T00:39:38;95200.41;;;9.23;nan
6680;BME280;3376;42.664;23.346;2022-10-16T00:42:05;95208.66;;;9.27;nan
6680;BME280;3376;42.664;23.346;2022-10-16T00:44:44;95205.06;;;9.20;nan
6680;BME280;3376;42.664;23.346;2022-10-16T00:47:22;95196.50;;;9.02;nan
6680;BME280;3376;42.664;23.346;2022-10-16T00:50:01;95193.56;;;8.97;nan
6680;BME280;3376;42.664;23.346;2022-10-16T00:52:31;95169.00;;;8.75;nan
6680;BME280;3376;42.664;23.346;2022-10-16T00:54:58;95187.19;;;8.91;nan
6680;BME280;3376;42.664;23.346;2022-10-16T00:57:25;95181.16;;;8.83;nan
6680;BME280;3376;42.664;23.346;2022-10-16T00:59:53;95189.34;;;8.96;nan
6680;BME280;3376;42.664;23.346;2022-10-16T01:02:21;95201.09;;;9.08;nan
6680;BME280;3376;42.664;23.346;2022-10-16T01:04:49;95182.50;;;8.87;nan
6680;BME280;3376;42.664;23.346;2022-10-16T01:07:27;95205.03;;;8.94;nan
6680;BME280;3376;42.664;23.346;2022-10-16T01:10:05;95195.47;;;8.95;nan
6680;BME280;3376;42.664;23.346;2022-10-16T01:12:38;95221.72;;;9.00;nan
6680;BME280;3376;42.664;23.346;2022-10-16T01:15:11;95185.97;;;8.78;nan
6680;BME280;3376;42.664;23.346;2022-10-16T01:17:45;95211.59;;;8.89;nan
6680;BME280;3376;42.664;23.346;2022-10-16T01:20:22;95186.41;;;8.73;nan
6680;BME280;3376;42.664;23.346;2022-10-16T01:22:59;95196.75;;;8.73;nan
6680;BME280;3376;42.664;23.346;2022-10-16T01:25:47;95177.47;;;8.68;nan
6680;BME280;3376;42.664;23.346;2022-10-16T01:28:18;95189.88;;;8.82;nan
6680;BME280;3376;42.664;23.346;2022-10-16T01:30:50;95188.63;;;8.86;nan
6680;BME280;3376;42.664;23.346;2022-10-16T01:33:21;95181.16;;;8.83;nan
6680;BME280;3376;42.664;23.346;2022-10-16T01:35:54;95183.75;;;8.83;nan
6680;BME280;3376;42.664;23.346;2022-10-16T01:38:25;95193.50;;;8.89;nan
6680;BME280;3376;42.664;23.346;2022-10-16T01:40:59;95195.34;;;8.79;nan
6680;BME280;3376;42.664;23.346;2022-10-16T01:43:31;95172.16;;;8.69;nan
6680;BME280;3376;42.664;23.346;2022-10-16T01:46:01;95188.28;;;8.81;nan
6680;BME280;3376;42.664;23.346;2022-10-16T01:48:29;95203.53;;;8.74;nan
6680;BME280;3376;42.664;23.346;2022-10-16T01:51:00;95192.31;;;8.66;nan
6680;BME280;3376;42.664;23.346;2022-10-16T01:53:30;95214.91;;;8.64;nan
6680;BME280;3376;42.664;23.346;2022-10-16T01:55:58;95208.09;;;8.63;nan
6680;BME280;3376;42.664;23.346;2022-10-16T01:58:28;95195.44;;;8.52;nan
6680;BME280;3376;42.664;23.346;2022-10-16T02:01:00;95190.75;;;8.38;nan
6680;BME280;3376;42.664;23.346;2022-10-16T02:03:28;95207.81;;;8.48;nan
6680;BME280;3376;42.664;23.346;2022-10-16T02:05:56;95209.38;;;8.59;nan
6680;BME280;3376;42.664;23.346;2022-10-16T02:08:25;95178.41;;;8.31;nan
6680;BME280;3376;42.664;23.346;2022-10-16T02:10:54;95202.53;;;8.40;nan
6680;BME280;3376;42.664;23.346;2022-10-16T02:13:26;95220.06;;;8.46;nan
6680;BME280;3376;42.664;23.346;2022-10-16T02:15:55;95223.34;;;8.39;nan
6680;BME280;3376;42.664;23.346;2022-10-16T02:18:22;95219.56;;;8.33;nan
6680;BME280;3376;42.664;23.346;2022-10-16T02:20:54;95212.31;;;8.19;nan
6680;BME280;3376;42.664;23.346;2022-10-16T02:23:27;95226.38;;;8.34;nan
6680;BME280;3376;42.664;23.346;2022-10-16T02:25:58;95225.25;;;8.37;nan
6680;BME280;3376;42.664;23.346;2022-10-16T02:28:33;95232.06;;;8.38;nan
6680;BME280;3376;42.664;23.346;2022-10-16T02:31:08;95217.94;;;8.32;nan
6680;BME280;3376;42.664;23.346;2022-10-16T02:33:38;95232.38;;;8.52;nan
6680;BME280;3376;42.664;23.346;2022-10-16T02:36:07;95216.19;;;8.23;nan
6680;BME280;3376;42.664;23.346;2022-10-16T02:38:34;95232.69;;;8.12;nan
6680;BME280;3376;42.664;23.346;2022-10-16T02:41:02;95232.75;;;8.03;nan
6680;BME280;3376;42.664;23.346;2022-10-16T02:43:29;95226.75;;;8.02;nan
6680;BME280;3376;42.664;23.346;2022-10-16T02:45:56;95178.88;;;7.63;nan
6680;BME280;3376;42.664;23.346;2022-10-16T02:48:24;95233.88;;;7.91;nan
6680;BME280;3376;42.664;23.346;2022-10-16T02:50:51;95230.53;;;7.81;nan
6680;BME280;3376;42.664;23.346;2022-10-16T02:53:18;95238.13;;;7.82;nan
6680;BME280;3376;42.664;23.346;2022-10-16T02:55:44;95220.63;;;7.76;nan
6680;BME280;3376;42.664;23.346;2022-10-16T02:58:11;95241.84;;;7.97;nan
6680;BME280;3376;42.664;23.346;2022-10-16T03:00:38;95251.41;;;7.87;nan
6680;BME280;3376;42.664;23.346;2022-10-16T03:03:05;95238.78;;;7.84;nan
6680;BME280;3376;42.664;23.346;2022-10-16T03:05:33;95241.09;;;7.87;nan
6680;BME280;3376;42.664;23.346;2022-10-16T03:08:00;95245.19;;;7.80;nan
6680;BME280;3376;42.664;23.346;2022-10-16T03:10:27;95248.00;;;7.87;nan
6680;BME280;3376;42.664;23.346;2022-10-16T03:12:53;95254.56;;;7.81;nan
6680;BME280;3376;42.664;23.346;2022-10-16T03:15:20;95252.13;;;7.80;nan
6680;BME280;3376;42.664;23.346;2022-10-16T03:17:47;95251.44;;;7.78;nan
6680;BME280;3376;42.664;23.346;2022-10-16T03:20:14;95264.72;;;7.83;nan
6680;BME280;3376;42.664;23.346;2022-10-16T03:22:42;95256.59;;;7.78;nan
6680;BME280;3376;42.664;23.346;2022-10-16T03:25:09;95261.63;;;7.79;nan
6680;BME280;3376;42.664;23.346;2022-10-16T03:27:36;95252.28;;;7.69;nan
6680;BME280;3376;42.664;23.346;2022-10-16T03:30:03;95261.22;;;7.74;nan
6680;BME280;3376;42.664;23.346;2022-10-16T03:32:29;95266.69;;;7.71;nan
6680;BME280;3376;42.664;23.346;2022-10-16T03:34:56;95262.88;;;7.66;nan
6680;BME280;3376;42.664;23.346;2022-10-16T03:37:23;95269.69;;;7.57;nan
6680;BME280;3376;42.664;23.346;2022-10-16T03:39:51;95245.25;;;7.52;nan
6680;BME280;3376;42.664;23.346;2022-10-16T03:42:18;95255.16;;;7.56;nan
6680;BME280;3376;42.664;23.346;2022-10-16T03:44:45;95264.25;;;7.60;nan
6680;BME280;3376;42.664;23.346;2022-10-16T03:47:11;95266.00;;;7.60;nan
6680;BME280;3376;42.664;23.346;2022-10-16T03:49:38;95261.53;;;7.62;nan
6680;BME280;3376;42.664;23.346;2022-10-16T03:52:05;95265.59;;;7.64;nan
6680;BME280;3376;42.664;23.346;2022-10-16T03:54:31;95260.06;;;7.59;nan
6680;BME280;3376;42.664;23.346;2022-10-16T03:57:00;95250.00;;;7.56;nan
6680;BME280;3376;42.664;23.346;2022-10-16T03:59:26;95254.91;;;7.59;nan
6680;BME280;3376;42.664;23.346;2022-10-16T04:01:53;95231.69;;;7.59;nan
6680;BME280;3376;42.664;23.346;2022-10-16T04:04:20;95259.63;;;7.64;nan
6680;BME280;3376;42.664;23.346;2022-10-16T04:06:47;95254.72;;;7.70;nan
6680;BME280;3376;42.664;23.346;2022-10-16T04:09:13;95257.56;;;7.67;nan
6680;BME280;3376;42.664;23.346;2022-10-16T04:11:40;95247.69;;;7.53;nan
6680;BME280;3376;42.664;23.346;2022-10-16T04:14:08;95253.41;;;7.57;nan
6680;BME280;3376;42.664;23.346;2022-10-16T04:16:35;95251.19;;;7.71;nan
6680;BME280;3376;42.664;23.346;2022-10-16T04:19:02;95266.69;;;7.71;nan
6680;BME280;3376;42.664;23.346;2022-10-16T04:21:28;95261.75;;;7.78;nan
6680;BME280;3376;42.664;23.346;2022-10-16T04:23:55;95247.81;;;7.61;nan
6680;BME280;3376;42.664;23.346;2022-10-16T04:26:22;95274.50;;;7.79;nan
6680;BME280;3376;42.664;23.346;2022-10-16T04:28:49;95228.53;;;7.65;nan
6680;BME280;3376;42.664;23.346;2022-10-16T04:31:17;95264.53;;;7.94;nan
6680;BME280;3376;42.664;23.346;2022-10-16T04:33:44;95276.13;;;7.90;nan
6680;BME280;3376;42.664;23.346;2022-10-16T04:36:11;95253.34;;;7.76;nan
6680;BME280;3376;42.664;23.346;2022-10-16T04:38:39;95276.94;;;7.81;nan
6680;BME280;3376;42.664;23.346;2022-10-16T04:41:06;95279.00;;;7.77;nan
6680;BME280;3376;42.664;23.346;2022-10-16T04:43:33;95280.59;;;7.78;nan
6680;BME280;3376;42.664;23.346;2022-10-16T04:46:00;95283.06;;;7.80;nan
6680;BME280;3376;42.664;23.346;2022-10-16T04:48:28;95257.47;;;7.59;nan
6680;BME280;3376;42.664;23.346;2022-10-16T04:50:55;95289.84;;;7.81;nan
6680;BME280;3376;42.664;23.346;2022-10-16T04:53:22;95253.34;;;7.66;nan
6680;BME280;3376;42.664;23.346;2022-10-16T04:55:49;95290.19;;;7.95;nan
6680;BME280;3376;42.664;23.346;2022-10-16T04:58:16;95286.53;;;7.98;nan
6680;BME280;3376;42.664;23.346;2022-10-16T05:00:44;95299.00;;;8.02;nan
6680;BME280;3376;42.664;23.346;2022-10-16T05:03:11;95304.38;;;8.18;nan
6680;BME280;3376;42.664;23.346;2022-10-16T05:05:44;95314.28;;;8.23;nan
6680;BME280;3376;42.664;23.346;2022-10-16T05:08:12;95319.59;;;8.21;nan
6680;BME280;3376;42.664;23.346;2022-10-16T05:10:39;95307.94;;;8.17;nan
6680;BME280;3376;42.664;23.346;2022-10-16T05:13:06;95298.69;;;8.24;nan
6680;BME280;3376;42.664;23.346;2022-10-16T05:15:33;95302.00;;;8.44;nan
6680;BME280;3376;42.664;23.346;2022-10-16T05:18:00;95316.94;;;8.68;nan
6680;BME280;3376;42.664;23.346;2022-10-16T05:20:27;95314.84;;;8.81;nan
6680;BME280;3376;42.664;23.346;2022-10-16T05:22:55;95318.19;;;8.91;nan
6680;BME280;3376;42.664;23.346;2022-10-16T05:25:22;95329.88;;;9.12;nan
6680;BME280;3376;42.664;23.346;2022-10-16T05:27:49;95311.56;;;9.06;nan
6680;BME280;3376;42.664;23.346;2022-10-16T05:30:17;95323.22;;;9.45;nan
6680;BME280;3376;42.664;23.346;2022-10-16T05:32:46;95327.34;;;9.73;nan
6680;BME280;3376;42.664;23.346;2022-10-16T05:35:13;95315.97;;;9.92;nan
6680;BME280;3376;42.664;23.346;2022-10-16T05:37:40;95318.41;;;10.11;nan
6680;BME280;3376;42.664;23.346;2022-10-16T05:40:09;95329.75;;;10.43;nan
6680;BME280;3376;42.664;23.346;2022-10-16T05:42:36;95327.88;;;10.69;nan
6680;BME280;3376;42.664;23.346;2022-10-16T05:45:03;95323.44;;;10.88;nan
6680;BME280;3376;42.664;23.346;2022-10-16T05:47:30;95329.50;;;11.12;nan
6680;BME280;3376;42.664;23.346;2022-10-16T05:49:57;95332.59;;;11.32;nan
6680;BME280;3376;42.664;23.346;2022-10-16T05:52:24;95345.78;;;11.54;nan
6680;BME280;3376;42.664;23.346;2022-10-16T05:54:51;95349.22;;;11.71;nan
6680;BME280;3376;42.664;23.346;2022-10-16T05:57:19;95339.47;;;11.89;nan
6680;BME280;3376;42.664;23.346;2022-10-16T05:59:46;95359.28;;;12.06;nan
6680;BME280;3376;42.664;23.346;2022-10-16T06:02:13;95271.03;;;11.74;nan
6680;BME280;3376;42.664;23.346;2022-10-16T06:04:40;95359.72;;;12.34;nan
6680;BME280;3376;42.664;23.346;2022-10-16T06:07:07;95368.25;;;12.58;nan
6680;BME280;3376;42.664;23.346;2022-10-16T06:09:33;95199.47;;;11.79;nan
6680;BME280;3376;42.664;23.346;2022-10-16T06:12:00;95347.00;;;12.93;nan
6680;BME280;3376;42.664;23.346;2022-10-16T06:14:28;95379.16;;;13.39;nan
6680;BME280;3376;42.664;23.346;2022-10-16T06:16:55;95372.31;;;13.69;nan
6680;BME280;3376;42.664;23.346;2022-10-16T06:19:22;95385.72;;;14.03;nan
6680;BME280;3376;42.664;23.346;2022-10-16T06:21:49;95390.84;;;14.34;nan
6680;BME280;3376;42.664;23.346;2022-10-16T06:24:16;95382.81;;;14.58;nan
6680;BME280;3376;42.664;23.346;2022-10-16T06:26:42;95391.28;;;14.89;nan
6680;BME280;3376;42.664;23.346;2022-10-16T06:29:09;95396.47;;;15.18;nan
6680;BME280;3376;42.664;23.346;2022-10-16T06:31:37;95397.63;;;15.80;nan
6680;BME280;3376;42.664;23.346;2022-10-16T06:34:04;95357.50;;;16.36;nan
6680;BME280;3376;42.664;23.346;2022-10-16T06:36:35;95402.03;;;17.45;nan
6680;BME280;3376;42.664;23.346;2022-10-16T06:39:02;95363.06;;;17.90;nan
6680;BME280;3376;42.664;23.346;2022-10-16T06:41:29;95394.41;;;18.69;nan
6680;BME280;3376;42.664;23.346;2022-10-16T06:43:56;95390.63;;;19.36;nan
6680;BME280;3376;42.664;23.346;2022-10-16T06:46:24;95369.38;;;19.81;nan
6680;BME280;3376;42.664;23.346;2022-10-16T06:48:53;95401.94;;;20.49;nan
6680;BME280;3376;42.664;23.346;2022-10-16T06:51:21;95394.34;;;20.84;nan
6680;BME280;3376;42.664;23.346;2022-10-16T06:53:50;95410.50;;;21.48;nan
6680;BME280;3376;42.664;23.346;2022-10-16T06:56:19;95419.59;;;21.88;nan
6680;BME280;3376;42.664;23.346;2022-10-16T06:58:46;95412.69;;;21.87;nan
6680;BME280;3376;42.664;23.346;2022-10-16T07:01:14;95413.50;;;22.17;nan
6680;BME280;3376;42.664;23.346;2022-10-16T07:03:43;95409.94;;;22.24;nan
6680;BME280;3376;42.664;23.346;2022-10-16T07:06:13;95423.56;;;22.50;nan
6680;BME280;3376;42.664;23.346;2022-10-16T07:08:42;95404.09;;;22.22;nan
6680;BME280;3376;42.664;23.346;2022-10-16T07:11:10;95417.81;;;22.00;nan
6680;BME280;3376;42.664;23.346;2022-10-16T07:13:39;95406.28;;;21.47;nan
6680;BME280;3376;42.664;23.346;2022-10-16T07:16:07;95429.88;;;21.78;nan
6680;BME280;3376;42.664;23.346;2022-10-16T07:18:34;95426.03;;;21.74;nan
6680;BME280;3376;42.664;23.346;2022-10-16T07:21:05;95418.88;;;21.81;nan
6680;BME280;3376;42.664;23.346;2022-10-16T07:23:34;95425.75;;;21.82;nan
6680;BME280;3376;42.664;23.346;2022-10-16T07:26:01;95432.06;;;21.45;nan
6680;BME280;3376;42.664;23.346;2022-10-16T07:28:28;95421.28;;;21.47;nan
6680;BME280;3376;42.664;23.346;2022-10-16T07:30:54;95428.16;;;21.84;nan
6680;BME280;3376;42.664;23.346;2022-10-16T07:33:21;95425.72;;;22.00;nan
6680;BME280;3376;42.664;23.346;2022-10-16T07:35:49;95427.47;;;22.48;nan
6680;BME280;3376;42.664;23.346;2022-10-16T07:38:16;95431.72;;;22.49;nan
6680;BME280;3376;42.664;23.346;2022-10-16T07:40:44;95428.59;;;22.81;nan
6680;BME280;3376;42.664;23.346;2022-10-16T07:43:11;95434.34;;;22.90;nan
6680;BME280;3376;42.664;23.346;2022-10-16T07:45:46;95406.28;;;22.89;nan
6680;BME280;3376;42.664;23.346;2022-10-16T07:48:13;95440.78;;;23.40;nan
6680;BME280;3376;42.664;23.346;2022-10-16T07:50:40;95441.34;;;23.65;nan
6680;BME280;3376;42.664;23.346;2022-10-16T07:53:08;95436.81;;;23.77;nan
6680;BME280;3376;42.664;23.346;2022-10-16T07:55:34;95443.59;;;23.73;nan
6680;BME280;3376;42.664;23.346;2022-10-16T07:58:03;95451.66;;;23.78;nan
6680;BME280;3376;42.664;23.346;2022-10-16T08:00:30;95446.94;;;23.80;nan
6680;BME280;3376;42.664;23.346;2022-10-16T08:02:57;95433.63;;;23.52;nan
6680;BME280;3376;42.664;23.346;2022-10-16T08:05:25;95447.75;;;23.81;nan
6680;BME280;3376;42.664;23.346;2022-10-16T08:07:52;95443.72;;;23.78;nan
6680;BME280;3376;42.664;23.346;2022-10-16T08:10:21;95445.88;;;23.93;nan
6680;BME280;3376;42.664;23.346;2022-10-16T08:12:49;95442.06;;;24.00;nan
6680;BME280;3376;42.664;23.346;2022-10-16T08:15:17;95439.28;;;23.95;nan
6680;BME280;3376;42.664;23.346;2022-10-16T08:17:44;95450.44;;;24.09;nan
6680;BME280;3376;42.664;23.346;2022-10-16T08:20:11;95447.72;;;24.20;nan
6680;BME280;3376;42.664;23.346;2022-10-16T08:22:38;95447.06;;;24.41;nan
6680;BME280;3376;42.664;23.346;2022-10-16T08:25:05;95324.22;;;23.86;nan
6680;BME280;3376;42.664;23.346;2022-10-16T08:27:32;95442.53;;;24.70;nan
6680;BME280;3376;42.664;23.346;2022-10-16T08:29:59;95441.41;;;24.66;nan
6680;BME280;3376;42.664;23.346;2022-10-16T08:32:27;95448.78;;;24.48;nan
6680;BME280;3376;42.664;23.346;2022-10-16T08:34:54;95434.63;;;24.59;nan
6680;BME280;3376;42.664;23.346;2022-10-16T08:37:21;95424.53;;;24.56;nan
6680;BME280;3376;42.664;23.346;2022-10-16T08:39:47;95436.03;;;24.61;nan
6680;BME280;3376;42.664;23.346;2022-10-16T08:42:34;95441.00;;;24.29;nan
6680;BME280;3376;42.664;23.346;2022-10-16T08:45:19;95438.19;;;24.64;nan
6680;BME280;3376;42.664;23.346;2022-10-16T08:47:54;95414.44;;;24.69;nan
6680;BME280;3376;42.664;23.346;2022-10-16T08:50:28;95426.13;;;25.23;nan
6680;BME280;3376;42.664;23.346;2022-10-16T08:52:56;95445.34;;;25.46;nan
6680;BME280;3376;42.664;23.346;2022-10-16T08:55:33;95443.81;;;25.17;nan
6680;BME280;3376;42.664;23.346;2022-10-16T08:58:10;95438.66;;;25.27;nan
6680;BME280;3376;42.664;23.346;2022-10-16T09:00:38;95434.34;;;25.05;nan
6680;BME280;3376;42.664;23.346;2022-10-16T09:03:16;95450.88;;;25.45;nan
6680;BME280;3376;42.664;23.346;2022-10-16T09:06:01;95451.41;;;25.64;nan
6680;BME280;3376;42.664;23.346;2022-10-16T09:08:38;95439.03;;;25.52;nan
6680;BME280;3376;42.664;23.346;2022-10-16T09:11:14;95447.59;;;25.76;nan
6680;BME280;3376;42.664;23.346;2022-10-16T09:13:50;95429.91;;;25.87;nan
6680;BME280;3376;42.664;23.346;2022-10-16T09:16:24;95441.09;;;25.67;nan
6680;BME280;3376;42.664;23.346;2022-10-16T09:19:01;95436.50;;;25.08;nan
6680;BME280;3376;42.664;23.346;2022-10-16T09:21:35;95444.78;;;25.28;nan
6680;BME280;3376;42.664;23.346;2022-10-16T09:24:12;95442.19;;;25.33;nan
6680;BME280;3376;42.664;23.346;2022-10-16T09:26:40;95437.75;;;25.00;nan
6680;BME280;3376;42.664;23.346;2022-10-16T09:29:09;95440.06;;;24.80;nan
6680;BME280;3376;42.664;23.346;2022-10-16T09:31:38;95441.69;;;24.36;nan
6680;BME280;3376;42.664;23.346;2022-10-16T09:34:06;95436.84;;;24.33;nan
6680;BME280;3376;42.664;23.346;2022-10-16T09:36:42;95433.97;;;24.35;nan
6680;BME280;3376;42.664;23.346;2022-10-16T09:39:11;95436.69;;;24.23;nan
6680;BME280;3376;42.664;23.346;2022-10-16T09:41:39;95431.47;;;24.28;nan
6680;BME280;3376;42.664;23.346;2022-10-16T09:44:18;95429.09;;;24.15;nan
6680;BME280;3376;42.664;23.346;2022-10-16T09:46:45;95436.09;;;24.66;nan
6680;BME280;3376;42.664;23.346;2022-10-16T09:49:21;95426.78;;;25.13;nan
6680;BME280;3376;42.664;23.346;2022-10-16T09:51:49;95404.59;;;25.36;nan
6680;BME280;3376;42.664;23.346;2022-10-16T09:54:18;95422.91;;;25.37;nan
6680;BME280;3376;42.664;23.346;2022-10-16T09:56:45;95422.94;;;25.04;nan
6680;BME280;3376;42.664;23.346;2022-10-16T09:59:18;95423.44;;;24.85;nan
6680;BME280;3376;42.664;23.346;2022-10-16T10:01:47;95421.97;;;24.77;nan
6680;BME280;3376;42.664;23.346;2022-10-16T10:04:15;95425.94;;;24.75;nan
6680;BME280;3376;42.664;23.346;2022-10-16T10:06:44;95380.38;;;24.61;nan
6680;BME280;3376;42.664;23.346;2022-10-16T10:09:20;95422.06;;;24.99;nan
6680;BME280;3376;42.664;23.346;2022-10-16T10:11:50;95418.72;;;25.25;nan
6680;BME280;3376;42.664;23.346;2022-10-16T10:14:27;95406.88;;;25.11;nan
6680;BME280;3376;42.664;23.346;2022-10-16T10:17:09;95407.03;;;24.88;nan
6680;BME280;3376;42.664;23.346;2022-10-16T10:19:42;95375.22;;;24.88;nan
6680;BME280;3376;42.664;23.346;2022-10-16T10:22:30;95408.41;;;25.07;nan
6680;BME280;3376;42.664;23.346;2022-10-16T10:25:10;95398.84;;;25.44;nan
6680;BME280;3376;42.664;23.346;2022-10-16T10:27:48;95393.75;;;25.04;nan
6680;BME280;3376;42.664;23.346;2022-10-16T10:30:22;95405.72;;;25.40;nan
6680;BME280;3376;42.664;23.346;2022-10-16T10:32:59;95390.28;;;25.20;nan
6680;BME280;3376;42.664;23.346;2022-10-16T10:35:38;95402.56;;;24.88;nan
6680;BME280;3376;42.664;23.346;2022-10-16T10:38:20;95387.13;;;24.69;nan
6680;BME280;3376;42.664;23.346;2022-10-16T10:40:58;95381.31;;;24.38;nan
6680;BME280;3376;42.664;23.346;2022-10-16T10:43:42;95383.31;;;24.48;nan
6680;BME280;3376;42.664;23.346;2022-10-16T10:46:20;95367.66;;;24.47;nan
6680;BME280;3376;42.664;23.346;2022-10-16T10:49:20;95399.94;;;24.60;nan
6680;BME280;3376;42.664;23.346;2022-10-16T10:51:58;95376.22;;;24.82;nan
6680;BME280;3376;42.664;23.346;2022-10-16T10:54:36;95383.13;;;25.21;nan
6680;BME280;3376;42.664;23.346;2022-10-16T10:57:10;95378.41;;;25.23;nan
6680;BME280;3376;42.664;23.346;2022-10-16T10:59:51;95372.66;;;25.31;nan
6680;BME280;3376;42.664;23.346;2022-10-16T11:02:23;95374.25;;;25.32;nan
6680;BME280;3376;42.664;23.346;2022-10-16T11:05:08;95275.22;;;24.67;nan
6680;BME280;3376;42.664;23.346;2022-10-16T11:07:43;95371.16;;;25.57;nan
6680;BME280;3376;42.664;23.346;2022-10-16T11:10:16;95367.75;;;25.61;nan
6680;BME280;3376;42.664;23.346;2022-10-16T11:12:47;95355.13;;;25.73;nan
6680;BME280;3376;42.664;23.346;2022-10-16T11:15:18;95364.06;;;25.89;nan
6680;BME280;3376;42.664;23.346;2022-10-16T11:17:52;95356.66;;;25.64;nan
6680;BME280;3376;42.664;23.346;2022-10-16T11:20:22;95364.97;;;25.51;nan
6680;BME280;3376;42.664;23.346;2022-10-16T11:22:53;95359.03;;;25.44;nan
6680;BME280;3376;42.664;23.346;2022-10-16T11:25:25;95314.16;;;25.21;nan
6680;BME280;3376;42.664;23.346;2022-10-16T11:27:57;95343.97;;;25.28;nan
6680;BME280;3376;42.664;23.346;2022-10-16T11:30:27;95354.59;;;24.90;nan
6680;BME280;3376;42.664;23.346;2022-10-16T11:33:03;95363.06;;;24.25;nan
6680;BME280;3376;42.664;23.346;2022-10-16T11:35:39;95347.44;;;23.68;nan
6680;BME280;3376;42.664;23.346;2022-10-16T11:38:14;95337.84;;;23.78;nan
6680;BME280;3376;42.664;23.346;2022-10-16T11:40:46;95347.81;;;23.88;nan
6680;BME280;3376;42.664;23.346;2022-10-16T11:43:17;95352.88;;;24.17;nan
6680;BME280;3376;42.664;23.346;2022-10-16T11:45:49;95347.31;;;24.19;nan
6680;BME280;3376;42.664;23.346;2022-10-16T11:48:23;95361.50;;;24.58;nan
6680;BME280;3376;42.664;23.346;2022-10-16T11:50:53;95348.88;;;24.65;nan
6680;BME280;3376;42.664;23.346;2022-10-16T11:53:34;95345.44;;;24.81;nan
6680;BME280;3376;42.664;23.346;2022-10-16T11:56:04;95358.00;;;24.24;nan
6680;BME280;3376;42.664;23.346;2022-10-16T11:58:35;95305.94;;;23.85;nan
6680;BME280;3376;42.664;23.346;2022-10-16T12:01:16;95353.41;;;24.03;nan
6680;BME280;3376;42.664;23.346;2022-10-16T12:03:47;95351.69;;;24.25;nan
6680;BME280;3376;42.664;23.346;2022-10-16T12:06:25;95356.75;;;24.26;nan
6680;BME280;3376;42.664;23.346;2022-10-16T12:08:54;95349.75;;;24.54;nan
6680;BME280;3376;42.664;23.346;2022-10-16T12:11:34;95340.19;;;24.86;nan
6680;BME280;3376;42.664;23.346;2022-10-16T12:14:19;95347.97;;;25.09;nan
6680;BME280;3376;42.664;23.346;2022-10-16T12:16:55;95342.16;;;25.33;nan
6680;BME280;3376;42.664;23.346;2022-10-16T12:19:23;95333.69;;;25.15;nan
6680;BME280;3376;42.664;23.346;2022-10-16T12:21:51;95352.66;;;25.23;nan
6680;BME280;3376;42.664;23.346;2022-10-16T12:24:31;95347.81;;;25.37;nan
6680;BME280;3376;42.664;23.346;2022-10-16T12:27:00;95353.78;;;25.27;nan
6680;BME280;3376;42.664;23.346;2022-10-16T12:29:33;95352.84;;;25.17;nan
6680;BME280;3376;42.664;23.346;2022-10-16T12:32:03;95339.88;;;24.99;nan
6680;BME280;3376;42.664;23.346;2022-10-16T12:34:36;95340.28;;;24.58;nan
6680;BME280;3376;42.664;23.346;2022-10-16T12:37:11;95342.22;;;24.62;nan
6680;BME280;3376;42.664;23.346;2022-10-16T12:39:39;95348.06;;;24.81;nan
6680;BME280;3376;42.664;23.346;2022-10-16T12:42:21;95348.53;;;24.94;nan
6680;BME280;3376;42.664;23.346;2022-10-16T12:44:48;95333.88;;;24.87;nan
6680;BME280;3376;42.664;23.346;2022-10-16T12:47:20;95349.91;;;24.97;nan
6680;BME280;3376;42.664;23.346;2022-10-16T12:49:49;95333.94;;;24.92;nan
6680;BME280;3376;42.664;23.346;2022-10-16T12:52:28;95315.69;;;24.95;nan
6680;BME280;3376;42.664;23.346;2022-10-16T12:54:56;95355.78;;;24.99;nan
6680;BME280;3376;42.664;23.346;2022-10-16T12:57:39;95349.63;;;24.77;nan
6680;BME280;3376;42.664;23.346;2022-10-16T13:00:20;95356.34;;;24.68;nan
6680;BME280;3376;42.664;23.346;2022-10-16T13:06:04;95366.16;;;24.84;nan
6680;BME280;3376;42.664;23.346;2022-10-16T13:08:55;95365.44;;;24.88;nan
6680;BME280;3376;42.664;23.346;2022-10-16T13:11:45;95378.34;;;24.68;nan
6680;BME280;3376;42.664;23.346;2022-10-16T13:14:29;95345.03;;;24.39;nan
6680;BME280;3376;42.664;23.346;2022-10-16T13:17:05;95367.91;;;24.62;nan
6680;BME280;3376;42.664;23.346;2022-10-16T13:19:44;95367.19;;;24.66;nan
6680;BME280;3376;42.664;23.346;2022-10-16T13:22:18;95359.38;;;24.26;nan
6680;BME280;3376;42.664;23.346;2022-10-16T13:25:00;95360.88;;;24.06;nan
6680;BME280;3376;42.664;23.346;2022-10-16T13:27:35;95352.03;;;24.00;nan
6680;BME280;3376;42.664;23.346;2022-10-16T13:30:15;95318.41;;;23.73;nan
6680;BME280;3376;42.664;23.346;2022-10-16T13:32:45;95353.19;;;24.04;nan
6680;BME280;3376;42.664;23.346;2022-10-16T13:35:21;95334.56;;;23.99;nan
6680;BME280;3376;42.664;23.346;2022-10-16T13:37:49;95332.56;;;23.95;nan
6680;BME280;3376;42.664;23.346;2022-10-16T13:40:21;95344.28;;;23.82;nan
6680;BME280;3376;42.664;23.346;2022-10-16T13:42:49;95373.31;;;24.05;nan
6680;BME280;3376;42.664;23.346;2022-10-16T13:45:22;95368.28;;;24.20;nan
6680;BME280;3376;42.664;23.346;2022-10-16T13:48:01;95366.19;;;24.22;nan
6680;BME280;3376;42.664;23.346;2022-10-16T13:50:28;95324.88;;;23.93;nan
6680;BME280;3376;42.664;23.346;2022-10-16T13:53:03;95363.78;;;24.21;nan
6680;BME280;3376;42.664;23.346;2022-10-16T13:55:31;95368.28;;;24.20;nan
6680;BME280;3376;42.664;23.346;2022-10-16T13:58:05;95338.66;;;23.79;nan